TAF KAND
AMD KAND 082004Z 0820/0918 35005KT P6SM BKN020 TEMPO 0820/0822 OVC008 FM090100 32003KT P6SM FEW250 FM090700 VRB02KT 6SM BR OVC010 FM091400 11003KT P6SM FEW250=
METAR KAND
WC KAND
WS KAND
WV KAND